ASN logo
ASN Wikibase Occurrence # 247805
Last updated: 5 June 2021
This information is added by users of ASN. Neither ASN nor the Flight Safety Foundation are responsible for the completeness or correctness of this information. If you feel this information is incomplete or incorrect, you can submit corrected information.

Date:13-FEB-2021
Time:04:35 UTC
Type:Silhouette image of generic B752 model; specific model in this crash may look slightly different
Boeing 757-236 (PCF)
Owner/operator:DHL UK, opf DHL Air
Registration: G-DHKZ
MSN: 25620/449
Fatalities:Fatalities: 0 / Occupants:
Other fatalities:0
Aircraft damage: Unknown
Category:Serious incident
Location:Leipzig Halle Airport -   Germany
Phase: Take off
Nature:Cargo
Departure airport:Leipzig Airport (LEJ/EDDP)
Destination airport:Frankfurt International Airport (FRA/EDDF)
Investigating agency: BFU Germany
Narrative:
European Air Transport flight QY126, a Boeing 757-200 cargo plane, returned to land at Leipzig Halle Airport in Germany after the cargo door opened in flight shortly after departure.
The aircraft took off from runway 26L at 04:32 UTC on a flight to Frankfurt Airport, Germany. The climb was stopped at about 5700 feet and the flight turned back for a landing on runway 08R, which is the same runway in opposite direction of takeoff. Landing was accomplished at 04:48 UTC and the aircraft stopped on the runway.
The aircraft was towed to the cargo apron about 35 minutes later.

G-DHKZ had been on the ground at Leipzig for 6 hours and 15 minutes. There was freezing fog at the time with temperatures reaching -17C.

The German BFU classified the occurrence as a Serious Incident and started an investigation.'

Weather reported about the incident time (0435Z):
EDDP 130450Z 26004KT 4000 R26R/1200D BCFG FEW016 M16/M17 Q1039 R26R/19//95 R26L/190195 TEMPO 1000 BCFG
EDDP 130420Z 27003KT 3000 R26L/0500D R26R/1300D BCFG NSC M15/M17 Q1038 R26R/19//95 R26L/190195 TEMPO 1000 BCFG
EDDP 130350Z 31004KT 3000 BCFG FEW017 M16/M17 Q1038 R26R/19//95 R26L/190195 TEMPO 1000 BCFG

Sources:

https://www.mz-web.de/mitteldeutschland/notlandung-in-leipzig-halle-ladetuer-von-dhl-maschine-oeffnet-sich-waehrend-flug-38060686
https://www.mdr.de/sachsen/leipzig/leipzig-leipzig-land/dhl-maschine-frachttuer-leipzig-100.html
https://www.flightradar24.com/data/aircraft/g-dhkz#26d05e8c
http://www.goklerdeyiz.net/kargo-ucaginin-ucusta-kargo-kapisi-acildi/

Similar occurrence to a Yakutia Boeing 757-236 (PCF) in 2014

Other occurrences involving this aircraft

15 Nov 2000 OY-GRL Greenlandair 0 Copenhagen-Kastrup Airport (CPH) min
5 Feb 2018 VH-TCA Tasman Cargo Airlines 0 near Auckland International Airport non


Images:


Revision history:

Date/timeContributorUpdates
13-Feb-2021 17:31 Goklerdeyiz.net Added
13-Feb-2021 17:47 harro Updated [Time, Aircraft type, Operator, Other fatalities, Departure airport, Destination airport, Source, Narrative]
13-Feb-2021 18:04 harro Updated [Operator, Source, Narrative, Photo]
13-Feb-2021 18:16 harro Updated [Source]
13-Feb-2021 19:34 Gnomy Updated [Operator]
15-Feb-2021 10:44 harro Updated [Narrative]
15-Feb-2021 10:59 harro Updated [Source]

Corrections or additions? ... Edit this accident description